Skip Navigation Links Skip Navigation Links

Current Weather

Alice Springs Aerodrome, Alice Springs, Australia

For information only: do not use for flight planning or navigation.
Latest weather
Observation time Thursday, January 27, 2022 3:30 PM AEDT
Local time Thursday, January 27, 2022 4:00 PM AEDT
Flight conditions Visual Meteorological Conditions
Winds
Wind direction East-Southeast (110°)
Wind speed 10 mph
Visibility 6.2 mi.
Sky condition
Ceiling unlimited
Temperature 93°F
Dewpoint 68°F
Altimeter 29.65 in.Hg
Derived measurements
Relative humidity 44%
Heat index 98°F
Density altitude 4582 ft.
Remarks
Fully automated report.
METAR YBAS 270430Z AUTO 11009KT 9999 // NCD 34/20 Q1004 RF00.0/000.0

Settings

Location code

InnerDrive.Weather 4.0.6770.0 Release CLR 4.0.30319.42000
Copyright ©2018 Inner Drive Technology. All rights reserved. Portions Copyright ©1986-2018 David Braverman.

Find weather

Site navigation


Skip Navigation Links

Place info

Page info

PayPal - The safer, easier way to pay online!

Return home.

Copyright ©2022 Inner Drive Technology. Purveyors of fine, hand-crafted computer software. Page printed 2022-01-27T05:00:52 UTC.